sensor_id;sensor_type;location;lat;lon;timestamp;P1;durP1;ratioP1;P2;durP2;ratioP2
8536;SDS011;4306;50.210;10.628;2022-12-18T00:02:07;53.13;;;21.13;;
8536;SDS011;4306;50.210;10.628;2022-12-18T00:04:33;51.93;;;21.10;;
8536;SDS011;4306;50.210;10.628;2022-12-18T00:07:00;58.60;;;23.20;;
8536;SDS011;4306;50.210;10.628;2022-12-18T00:09:27;55.83;;;20.37;;
8536;SDS011;4306;50.210;10.628;2022-12-18T00:11:54;44.90;;;17.10;;
8536;SDS011;4306;50.210;10.628;2022-12-18T00:14:23;40.73;;;17.83;;
8536;SDS011;4306;50.210;10.628;2022-12-18T00:16:49;40.40;;;16.43;;
8536;SDS011;4306;50.210;10.628;2022-12-18T00:19:16;37.53;;;15.27;;
8536;SDS011;4306;50.210;10.628;2022-12-18T00:21:43;39.10;;;17.30;;
8536;SDS011;4306;50.210;10.628;2022-12-18T00:24:10;49.60;;;19.00;;
8536;SDS011;4306;50.210;10.628;2022-12-18T00:26:38;40.10;;;17.77;;
8536;SDS011;4306;50.210;10.628;2022-12-18T00:29:07;40.60;;;17.27;;
8536;SDS011;4306;50.210;10.628;2022-12-18T00:31:37;31.77;;;14.43;;
8536;SDS011;4306;50.210;10.628;2022-12-18T00:34:04;32.23;;;14.43;;
8536;SDS011;4306;50.210;10.628;2022-12-18T00:36:32;33.73;;;13.83;;
8536;SDS011;4306;50.210;10.628;2022-12-18T00:39:00;29.67;;;13.90;;
8536;SDS011;4306;50.210;10.628;2022-12-18T00:41:29;25.60;;;13.10;;
8536;SDS011;4306;50.210;10.628;2022-12-18T00:44:14;25.80;;;12.60;;
8536;SDS011;4306;50.210;10.628;2022-12-18T00:46:43;37.33;;;14.63;;
8536;SDS011;4306;50.210;10.628;2022-12-18T00:49:11;27.10;;;12.97;;
8536;SDS011;4306;50.210;10.628;2022-12-18T00:51:38;30.37;;;12.60;;
8536;SDS011;4306;50.210;10.628;2022-12-18T00:54:05;29.80;;;12.70;;
8536;SDS011;4306;50.210;10.628;2022-12-18T00:56:32;29.83;;;14.23;;
8536;SDS011;4306;50.210;10.628;2022-12-18T00:59:00;24.57;;;11.80;;
8536;SDS011;4306;50.210;10.628;2022-12-18T01:01:27;35.10;;;14.63;;
8536;SDS011;4306;50.210;10.628;2022-12-18T01:03:59;43.07;;;16.43;;
8536;SDS011;4306;50.210;10.628;2022-12-18T01:06:26;45.97;;;18.50;;
8536;SDS011;4306;50.210;10.628;2022-12-18T01:08:53;49.87;;;20.00;;
8536;SDS011;4306;50.210;10.628;2022-12-18T01:11:22;45.83;;;16.87;;
8536;SDS011;4306;50.210;10.628;2022-12-18T01:13:49;35.07;;;17.20;;
8536;SDS011;4306;50.210;10.628;2022-12-18T01:16:17;35.20;;;15.77;;
8536;SDS011;4306;50.210;10.628;2022-12-18T01:18:44;35.20;;;14.87;;
8536;SDS011;4306;50.210;10.628;2022-12-18T01:21:14;34.33;;;14.07;;
8536;SDS011;4306;50.210;10.628;2022-12-18T01:23:42;28.27;;;12.77;;
8536;SDS011;4306;50.210;10.628;2022-12-18T01:26:09;25.77;;;11.83;;
8536;SDS011;4306;50.210;10.628;2022-12-18T01:28:37;21.67;;;11.67;;
8536;SDS011;4306;50.210;10.628;2022-12-18T01:31:14;34.10;;;15.07;;
8536;SDS011;4306;50.210;10.628;2022-12-18T01:33:43;40.70;;;19.43;;
8536;SDS011;4306;50.210;10.628;2022-12-18T01:36:19;49.53;;;19.87;;
8536;SDS011;4306;50.210;10.628;2022-12-18T01:38:47;39.13;;;17.17;;
8536;SDS011;4306;50.210;10.628;2022-12-18T01:41:16;43.43;;;18.80;;
8536;SDS011;4306;50.210;10.628;2022-12-18T01:43:45;69.80;;;26.73;;
8536;SDS011;4306;50.210;10.628;2022-12-18T01:46:15;84.23;;;30.23;;
8536;SDS011;4306;50.210;10.628;2022-12-18T01:48:42;71.17;;;25.43;;
8536;SDS011;4306;50.210;10.628;2022-12-18T01:51:11;63.80;;;24.70;;
8536;SDS011;4306;50.210;10.628;2022-12-18T01:53:40;68.77;;;25.87;;
8536;SDS011;4306;50.210;10.628;2022-12-18T01:56:11;84.67;;;32.07;;
8536;SDS011;4306;50.210;10.628;2022-12-18T01:58:41;90.67;;;31.77;;
8536;SDS011;4306;50.210;10.628;2022-12-18T02:01:16;65.70;;;23.23;;
8536;SDS011;4306;50.210;10.628;2022-12-18T02:03:44;53.97;;;22.27;;
8536;SDS011;4306;50.210;10.628;2022-12-18T02:06:13;50.73;;;20.53;;
8536;SDS011;4306;50.210;10.628;2022-12-18T02:08:47;42.70;;;19.03;;
8536;SDS011;4306;50.210;10.628;2022-12-18T02:11:23;37.63;;;17.77;;
8536;SDS011;4306;50.210;10.628;2022-12-18T02:14:00;40.23;;;18.00;;
8536;SDS011;4306;50.210;10.628;2022-12-18T02:16:35;38.07;;;17.40;;
8536;SDS011;4306;50.210;10.628;2022-12-18T02:19:14;38.27;;;15.47;;
8536;SDS011;4306;50.210;10.628;2022-12-18T02:21:55;38.27;;;15.47;;
8536;SDS011;4306;50.210;10.628;2022-12-18T02:24:35;34.10;;;15.23;;
8536;SDS011;4306;50.210;10.628;2022-12-18T02:27:07;39.90;;;15.77;;
8536;SDS011;4306;50.210;10.628;2022-12-18T02:29:36;33.13;;;14.63;;
8536;SDS011;4306;50.210;10.628;2022-12-18T02:32:08;35.67;;;15.93;;
8536;SDS011;4306;50.210;10.628;2022-12-18T02:34:39;37.63;;;14.83;;
8536;SDS011;4306;50.210;10.628;2022-12-18T02:37:08;33.97;;;15.20;;
8536;SDS011;4306;50.210;10.628;2022-12-18T02:39:38;35.03;;;14.60;;
8536;SDS011;4306;50.210;10.628;2022-12-18T02:42:09;43.80;;;15.60;;
8536;SDS011;4306;50.210;10.628;2022-12-18T02:44:41;30.07;;;12.60;;
8536;SDS011;4306;50.210;10.628;2022-12-18T02:47:09;36.63;;;14.20;;
8536;SDS011;4306;50.210;10.628;2022-12-18T02:49:40;33.57;;;14.67;;
8536;SDS011;4306;50.210;10.628;2022-12-18T02:52:23;30.87;;;14.03;;
8536;SDS011;4306;50.210;10.628;2022-12-18T02:54:59;30.07;;;14.80;;
8536;SDS011;4306;50.210;10.628;2022-12-18T02:57:42;34.07;;;14.30;;
8536;SDS011;4306;50.210;10.628;2022-12-18T03:00:14;29.37;;;12.97;;
8536;SDS011;4306;50.210;10.628;2022-12-18T03:02:45;33.57;;;15.27;;
8536;SDS011;4306;50.210;10.628;2022-12-18T03:05:16;33.63;;;15.57;;
8536;SDS011;4306;50.210;10.628;2022-12-18T03:07:46;33.57;;;14.87;;
8536;SDS011;4306;50.210;10.628;2022-12-18T03:10:19;24.70;;;12.27;;
8536;SDS011;4306;50.210;10.628;2022-12-18T03:12:52;25.33;;;11.77;;
8536;SDS011;4306;50.210;10.628;2022-12-18T03:15:24;22.43;;;9.87;;
8536;SDS011;4306;50.210;10.628;2022-12-18T03:17:57;20.10;;;10.03;;
8536;SDS011;4306;50.210;10.628;2022-12-18T03:20:29;19.47;;;8.47;;
8536;SDS011;4306;50.210;10.628;2022-12-18T03:22:59;20.23;;;9.53;;
8536;SDS011;4306;50.210;10.628;2022-12-18T03:25:32;23.23;;;9.80;;
8536;SDS011;4306;50.210;10.628;2022-12-18T03:28:02;22.50;;;9.63;;
8536;SDS011;4306;50.210;10.628;2022-12-18T03:30:33;19.43;;;8.70;;
8536;SDS011;4306;50.210;10.628;2022-12-18T03:33:05;19.53;;;9.50;;
8536;SDS011;4306;50.210;10.628;2022-12-18T03:35:36;22.00;;;9.70;;
8536;SDS011;4306;50.210;10.628;2022-12-18T03:38:05;20.60;;;9.47;;
8536;SDS011;4306;50.210;10.628;2022-12-18T03:40:36;18.67;;;8.97;;
8536;SDS011;4306;50.210;10.628;2022-12-18T03:43:16;21.17;;;9.57;;
8536;SDS011;4306;50.210;10.628;2022-12-18T03:45:48;17.63;;;8.87;;
8536;SDS011;4306;50.210;10.628;2022-12-18T03:48:21;18.40;;;9.37;;
8536;SDS011;4306;50.210;10.628;2022-12-18T03:50:55;23.30;;;10.80;;
8536;SDS011;4306;50.210;10.628;2022-12-18T03:53:25;26.70;;;13.23;;
8536;SDS011;4306;50.210;10.628;2022-12-18T03:55:59;24.27;;;12.00;;
8536;SDS011;4306;50.210;10.628;2022-12-18T03:58:29;23.33;;;10.73;;
8536;SDS011;4306;50.210;10.628;2022-12-18T04:01:00;19.40;;;9.83;;
8536;SDS011;4306;50.210;10.628;2022-12-18T04:03:30;22.60;;;10.00;;
8536;SDS011;4306;50.210;10.628;2022-12-18T04:06:00;20.37;;;9.47;;
8536;SDS011;4306;50.210;10.628;2022-12-18T04:08:27;22.30;;;10.43;;
8536;SDS011;4306;50.210;10.628;2022-12-18T04:10:55;19.13;;;9.47;;
8536;SDS011;4306;50.210;10.628;2022-12-18T04:13:22;22.23;;;9.70;;
8536;SDS011;4306;50.210;10.628;2022-12-18T04:15:50;18.93;;;9.33;;
8536;SDS011;4306;50.210;10.628;2022-12-18T04:18:17;20.77;;;9.77;;
8536;SDS011;4306;50.210;10.628;2022-12-18T04:20:44;21.80;;;9.90;;
8536;SDS011;4306;50.210;10.628;2022-12-18T04:23:11;21.30;;;10.27;;
8536;SDS011;4306;50.210;10.628;2022-12-18T04:25:38;21.17;;;10.07;;
8536;SDS011;4306;50.210;10.628;2022-12-18T04:28:05;16.73;;;9.07;;
8536;SDS011;4306;50.210;10.628;2022-12-18T04:30:32;19.20;;;9.80;;
8536;SDS011;4306;50.210;10.628;2022-12-18T04:33:00;18.57;;;9.33;;
8536;SDS011;4306;50.210;10.628;2022-12-18T04:35:27;20.17;;;9.67;;
8536;SDS011;4306;50.210;10.628;2022-12-18T04:37:54;22.43;;;11.00;;
8536;SDS011;4306;50.210;10.628;2022-12-18T04:40:20;21.23;;;11.00;;
8536;SDS011;4306;50.210;10.628;2022-12-18T04:42:47;22.97;;;11.57;;
8536;SDS011;4306;50.210;10.628;2022-12-18T04:45:14;21.83;;;10.50;;
8536;SDS011;4306;50.210;10.628;2022-12-18T04:47:41;20.87;;;9.83;;
8536;SDS011;4306;50.210;10.628;2022-12-18T04:50:10;19.93;;;9.43;;
8536;SDS011;4306;50.210;10.628;2022-12-18T04:52:36;27.37;;;11.33;;
8536;SDS011;4306;50.210;10.628;2022-12-18T04:55:03;22.63;;;10.63;;
8536;SDS011;4306;50.210;10.628;2022-12-18T04:57:31;23.47;;;10.60;;
8536;SDS011;4306;50.210;10.628;2022-12-18T04:59:58;21.53;;;11.40;;
8536;SDS011;4306;50.210;10.628;2022-12-18T05:02:24;23.40;;;10.53;;
8536;SDS011;4306;50.210;10.628;2022-12-18T05:04:51;24.30;;;11.10;;
8536;SDS011;4306;50.210;10.628;2022-12-18T05:07:19;26.50;;;11.50;;
8536;SDS011;4306;50.210;10.628;2022-12-18T05:09:46;26.23;;;11.90;;
8536;SDS011;4306;50.210;10.628;2022-12-18T05:12:13;22.30;;;11.43;;
8536;SDS011;4306;50.210;10.628;2022-12-18T05:14:40;28.37;;;11.60;;
8536;SDS011;4306;50.210;10.628;2022-12-18T05:17:07;29.97;;;12.13;;
8536;SDS011;4306;50.210;10.628;2022-12-18T05:19:34;24.90;;;11.93;;
8536;SDS011;4306;50.210;10.628;2022-12-18T05:22:00;24.53;;;10.80;;
8536;SDS011;4306;50.210;10.628;2022-12-18T05:24:29;26.97;;;11.27;;
8536;SDS011;4306;50.210;10.628;2022-12-18T05:26:55;22.60;;;11.57;;
8536;SDS011;4306;50.210;10.628;2022-12-18T05:29:22;24.20;;;11.60;;
8536;SDS011;4306;50.210;10.628;2022-12-18T05:31:49;21.63;;;10.03;;
8536;SDS011;4306;50.210;10.628;2022-12-18T05:34:16;23.63;;;10.67;;
8536;SDS011;4306;50.210;10.628;2022-12-18T05:36:43;17.30;;;8.37;;
8536;SDS011;4306;50.210;10.628;2022-12-18T05:39:10;22.30;;;10.20;;
8536;SDS011;4306;50.210;10.628;2022-12-18T05:41:38;21.30;;;9.63;;
8536;SDS011;4306;50.210;10.628;2022-12-18T05:44:05;19.87;;;9.60;;
8536;SDS011;4306;50.210;10.628;2022-12-18T05:46:32;18.50;;;9.87;;
8536;SDS011;4306;50.210;10.628;2022-12-18T05:48:59;18.83;;;8.83;;
8536;SDS011;4306;50.210;10.628;2022-12-18T05:51:26;22.40;;;10.47;;
8536;SDS011;4306;50.210;10.628;2022-12-18T05:53:53;19.63;;;9.70;;
8536;SDS011;4306;50.210;10.628;2022-12-18T05:56:21;19.10;;;8.17;;
8536;SDS011;4306;50.210;10.628;2022-12-18T05:58:52;19.63;;;9.10;;
8536;SDS011;4306;50.210;10.628;2022-12-18T06:01:20;22.87;;;10.67;;
8536;SDS011;4306;50.210;10.628;2022-12-18T06:03:49;19.97;;;10.20;;
8536;SDS011;4306;50.210;10.628;2022-12-18T06:06:16;22.27;;;10.00;;
8536;SDS011;4306;50.210;10.628;2022-12-18T06:08:44;22.60;;;9.87;;
8536;SDS011;4306;50.210;10.628;2022-12-18T06:11:12;27.10;;;12.37;;
8536;SDS011;4306;50.210;10.628;2022-12-18T06:13:41;25.73;;;11.53;;
8536;SDS011;4306;50.210;10.628;2022-12-18T06:16:10;24.43;;;13.40;;
8536;SDS011;4306;50.210;10.628;2022-12-18T06:18:36;25.10;;;13.80;;
8536;SDS011;4306;50.210;10.628;2022-12-18T06:21:03;30.53;;;16.53;;
8536;SDS011;4306;50.210;10.628;2022-12-18T06:23:31;27.73;;;13.90;;
8536;SDS011;4306;50.210;10.628;2022-12-18T06:25:57;29.07;;;13.37;;
8536;SDS011;4306;50.210;10.628;2022-12-18T06:28:24;29.53;;;13.33;;
8536;SDS011;4306;50.210;10.628;2022-12-18T06:30:51;31.40;;;13.53;;
8536;SDS011;4306;50.210;10.628;2022-12-18T06:33:19;29.90;;;12.90;;
8536;SDS011;4306;50.210;10.628;2022-12-18T06:35:46;28.57;;;13.10;;
8536;SDS011;4306;50.210;10.628;2022-12-18T06:38:13;27.77;;;12.43;;
8536;SDS011;4306;50.210;10.628;2022-12-18T06:40:40;27.23;;;12.20;;
8536;SDS011;4306;50.210;10.628;2022-12-18T06:43:07;27.20;;;11.70;;
8536;SDS011;4306;50.210;10.628;2022-12-18T06:45:33;24.80;;;10.43;;
8536;SDS011;4306;50.210;10.628;2022-12-18T06:48:00;27.63;;;11.20;;
8536;SDS011;4306;50.210;10.628;2022-12-18T06:50:29;25.03;;;11.10;;
8536;SDS011;4306;50.210;10.628;2022-12-18T06:52:55;26.50;;;12.03;;
8536;SDS011;4306;50.210;10.628;2022-12-18T06:55:22;27.37;;;11.70;;
8536;SDS011;4306;50.210;10.628;2022-12-18T06:57:49;23.27;;;11.57;;
8536;SDS011;4306;50.210;10.628;2022-12-18T07:00:16;27.50;;;11.73;;
8536;SDS011;4306;50.210;10.628;2022-12-18T07:02:43;23.33;;;10.63;;
8536;SDS011;4306;50.210;10.628;2022-12-18T07:05:10;25.00;;;12.17;;
8536;SDS011;4306;50.210;10.628;2022-12-18T07:07:38;26.37;;;11.63;;
8536;SDS011;4306;50.210;10.628;2022-12-18T07:10:05;25.47;;;10.80;;
8536;SDS011;4306;50.210;10.628;2022-12-18T07:14:59;23.50;;;11.53;;
8536;SDS011;4306;50.210;10.628;2022-12-18T07:17:26;26.77;;;10.43;;
8536;SDS011;4306;50.210;10.628;2022-12-18T07:19:53;23.83;;;11.43;;
8536;SDS011;4306;50.210;10.628;2022-12-18T07:22:20;28.33;;;12.27;;
8536;SDS011;4306;50.210;10.628;2022-12-18T07:24:48;25.73;;;11.43;;
8536;SDS011;4306;50.210;10.628;2022-12-18T07:27:15;26.27;;;11.80;;
8536;SDS011;4306;50.210;10.628;2022-12-18T07:29:42;21.90;;;10.97;;
8536;SDS011;4306;50.210;10.628;2022-12-18T07:32:09;23.93;;;10.97;;
8536;SDS011;4306;50.210;10.628;2022-12-18T07:34:36;28.90;;;13.40;;
8536;SDS011;4306;50.210;10.628;2022-12-18T07:37:03;37.07;;;17.80;;
8536;SDS011;4306;50.210;10.628;2022-12-18T07:39:30;29.47;;;12.90;;
8536;SDS011;4306;50.210;10.628;2022-12-18T07:41:58;23.80;;;11.53;;
8536;SDS011;4306;50.210;10.628;2022-12-18T07:44:42;27.30;;;12.37;;
8536;SDS011;4306;50.210;10.628;2022-12-18T07:47:09;21.30;;;10.20;;
8536;SDS011;4306;50.210;10.628;2022-12-18T07:49:36;27.17;;;12.20;;
8536;SDS011;4306;50.210;10.628;2022-12-18T07:52:03;24.57;;;10.47;;
8536;SDS011;4306;50.210;10.628;2022-12-18T07:54:30;26.80;;;10.20;;
8536;SDS011;4306;50.210;10.628;2022-12-18T07:56:58;22.60;;;10.17;;
8536;SDS011;4306;50.210;10.628;2022-12-18T07:59:26;21.63;;;10.17;;
8536;SDS011;4306;50.210;10.628;2022-12-18T08:01:52;22.27;;;11.63;;
8536;SDS011;4306;50.210;10.628;2022-12-18T08:04:19;25.70;;;13.37;;
8536;SDS011;4306;50.210;10.628;2022-12-18T08:06:46;30.03;;;13.67;;
8536;SDS011;4306;50.210;10.628;2022-12-18T08:09:13;24.20;;;13.23;;
8536;SDS011;4306;50.210;10.628;2022-12-18T08:11:40;26.10;;;13.27;;
8536;SDS011;4306;50.210;10.628;2022-12-18T08:14:08;29.43;;;14.83;;
8536;SDS011;4306;50.210;10.628;2022-12-18T08:16:35;20.00;;;10.50;;
8536;SDS011;4306;50.210;10.628;2022-12-18T08:19:02;22.67;;;11.27;;
8536;SDS011;4306;50.210;10.628;2022-12-18T08:21:30;21.80;;;10.63;;
8536;SDS011;4306;50.210;10.628;2022-12-18T08:23:58;30.63;;;15.30;;
8536;SDS011;4306;50.210;10.628;2022-12-18T08:26:28;36.17;;;16.13;;
8536;SDS011;4306;50.210;10.628;2022-12-18T08:28:57;65.30;;;39.97;;
8536;SDS011;4306;50.210;10.628;2022-12-18T08:31:27;35.40;;;17.63;;
8536;SDS011;4306;50.210;10.628;2022-12-18T08:33:56;26.70;;;13.77;;
8536;SDS011;4306;50.210;10.628;2022-12-18T08:36:23;26.17;;;13.70;;
8536;SDS011;4306;50.210;10.628;2022-12-18T08:38:51;34.43;;;18.57;;
8536;SDS011;4306;50.210;10.628;2022-12-18T08:41:18;31.50;;;15.13;;
8536;SDS011;4306;50.210;10.628;2022-12-18T08:43:45;30.67;;;15.60;;
8536;SDS011;4306;50.210;10.628;2022-12-18T08:46:33;50.47;;;17.83;;
8536;SDS011;4306;50.210;10.628;2022-12-18T08:49:02;38.70;;;17.53;;
8536;SDS011;4306;50.210;10.628;2022-12-18T08:51:30;34.87;;;16.87;;
8536;SDS011;4306;50.210;10.628;2022-12-18T08:53:57;39.10;;;17.70;;
8536;SDS011;4306;50.210;10.628;2022-12-18T08:56:24;32.90;;;16.17;;
8536;SDS011;4306;50.210;10.628;2022-12-18T08:58:51;27.73;;;14.73;;
8536;SDS011;4306;50.210;10.628;2022-12-18T09:01:19;25.10;;;14.37;;
8536;SDS011;4306;50.210;10.628;2022-12-18T09:03:48;26.90;;;14.50;;
8536;SDS011;4306;50.210;10.628;2022-12-18T09:06:16;29.07;;;13.53;;
8536;SDS011;4306;50.210;10.628;2022-12-18T09:08:44;30.63;;;15.20;;
8536;SDS011;4306;50.210;10.628;2022-12-18T09:11:14;31.97;;;14.97;;
8536;SDS011;4306;50.210;10.628;2022-12-18T09:13:45;27.60;;;13.93;;
8536;SDS011;4306;50.210;10.628;2022-12-18T09:16:12;32.67;;;15.97;;
8536;SDS011;4306;50.210;10.628;2022-12-18T09:18:39;34.87;;;18.40;;
8536;SDS011;4306;50.210;10.628;2022-12-18T09:21:11;32.80;;;15.50;;
8536;SDS011;4306;50.210;10.628;2022-12-18T09:23:38;33.63;;;17.73;;
8536;SDS011;4306;50.210;10.628;2022-12-18T09:26:05;34.83;;;15.53;;
8536;SDS011;4306;50.210;10.628;2022-12-18T09:28:32;29.43;;;15.63;;
8536;SDS011;4306;50.210;10.628;2022-12-18T09:31:02;40.07;;;18.90;;
8536;SDS011;4306;50.210;10.628;2022-12-18T09:33:31;40.50;;;22.93;;
8536;SDS011;4306;50.210;10.628;2022-12-18T09:36:00;31.97;;;18.67;;
8536;SDS011;4306;50.210;10.628;2022-12-18T09:38:34;29.37;;;16.13;;
8536;SDS011;4306;50.210;10.628;2022-12-18T09:41:03;30.10;;;15.53;;
8536;SDS011;4306;50.210;10.628;2022-12-18T09:43:34;30.30;;;15.30;;
8536;SDS011;4306;50.210;10.628;2022-12-18T09:46:07;29.93;;;14.50;;
8536;SDS011;4306;50.210;10.628;2022-12-18T09:48:38;31.10;;;18.23;;
8536;SDS011;4306;50.210;10.628;2022-12-18T09:51:10;30.77;;;13.60;;
8536;SDS011;4306;50.210;10.628;2022-12-18T09:53:43;31.60;;;14.53;;
8536;SDS011;4306;50.210;10.628;2022-12-18T09:56:15;26.70;;;14.00;;
8536;SDS011;4306;50.210;10.628;2022-12-18T09:58:45;32.93;;;15.80;;
8536;SDS011;4306;50.210;10.628;2022-12-18T10:01:15;28.37;;;13.57;;
8536;SDS011;4306;50.210;10.628;2022-12-18T10:03:47;29.10;;;15.17;;
8536;SDS011;4306;50.210;10.628;2022-12-18T10:06:15;29.63;;;15.53;;
8536;SDS011;4306;50.210;10.628;2022-12-18T10:08:51;27.00;;;14.73;;
8536;SDS011;4306;50.210;10.628;2022-12-18T10:11:34;26.47;;;13.73;;
8536;SDS011;4306;50.210;10.628;2022-12-18T10:14:09;29.17;;;14.47;;
8536;SDS011;4306;50.210;10.628;2022-12-18T10:16:43;26.53;;;15.00;;
8536;SDS011;4306;50.210;10.628;2022-12-18T10:19:24;50.60;;;20.87;;
8536;SDS011;4306;50.210;10.628;2022-12-18T10:22:11;42.23;;;17.63;;
8536;SDS011;4306;50.210;10.628;2022-12-18T10:24:49;36.03;;;14.97;;
8536;SDS011;4306;50.210;10.628;2022-12-18T10:27:22;32.47;;;15.70;;
8536;SDS011;4306;50.210;10.628;2022-12-18T10:29:51;32.73;;;15.33;;
8536;SDS011;4306;50.210;10.628;2022-12-18T10:32:20;28.13;;;14.67;;
8536;SDS011;4306;50.210;10.628;2022-12-18T10:34:52;30.47;;;15.80;;
8536;SDS011;4306;50.210;10.628;2022-12-18T10:37:21;28.57;;;13.93;;
8536;SDS011;4306;50.210;10.628;2022-12-18T10:42:35;34.90;;;15.93;;
8536;SDS011;4306;50.210;10.628;2022-12-18T10:45:03;25.53;;;14.17;;
8536;SDS011;4306;50.210;10.628;2022-12-18T10:47:34;29.47;;;15.33;;
8536;SDS011;4306;50.210;10.628;2022-12-18T10:50:02;30.80;;;14.37;;
8536;SDS011;4306;50.210;10.628;2022-12-18T10:52:30;26.90;;;13.63;;
8536;SDS011;4306;50.210;10.628;2022-12-18T10:54:58;30.67;;;13.93;;
8536;SDS011;4306;50.210;10.628;2022-12-18T10:57:31;29.13;;;15.57;;
8536;SDS011;4306;50.210;10.628;2022-12-18T11:00:18;31.40;;;15.67;;
8536;SDS011;4306;50.210;10.628;2022-12-18T11:02:51;32.30;;;14.47;;
8536;SDS011;4306;50.210;10.628;2022-12-18T11:05:29;30.70;;;14.40;;
8536;SDS011;4306;50.210;10.628;2022-12-18T11:07:59;27.83;;;13.03;;
8536;SDS011;4306;50.210;10.628;2022-12-18T11:10:28;25.23;;;13.53;;
8536;SDS011;4306;50.210;10.628;2022-12-18T11:13:11;27.67;;;13.67;;
8536;SDS011;4306;50.210;10.628;2022-12-18T11:15:42;27.60;;;13.37;;
8536;SDS011;4306;50.210;10.628;2022-12-18T11:18:16;28.40;;;12.87;;
8536;SDS011;4306;50.210;10.628;2022-12-18T11:20:50;27.57;;;13.07;;
8536;SDS011;4306;50.210;10.628;2022-12-18T11:23:18;29.63;;;14.00;;
8536;SDS011;4306;50.210;10.628;2022-12-18T11:25:56;26.97;;;13.43;;
8536;SDS011;4306;50.210;10.628;2022-12-18T11:28:30;29.57;;;14.70;;
8536;SDS011;4306;50.210;10.628;2022-12-18T11:31:09;28.07;;;13.63;;
8536;SDS011;4306;50.210;10.628;2022-12-18T11:33:44;27.17;;;13.80;;
8536;SDS011;4306;50.210;10.628;2022-12-18T11:36:16;27.20;;;12.83;;
8536;SDS011;4306;50.210;10.628;2022-12-18T11:38:44;27.63;;;12.63;;
8536;SDS011;4306;50.210;10.628;2022-12-18T11:41:14;24.50;;;12.97;;
8536;SDS011;4306;50.210;10.628;2022-12-18T11:43:49;25.97;;;12.40;;
8536;SDS011;4306;50.210;10.628;2022-12-18T11:46:23;26.50;;;13.27;;
8536;SDS011;4306;50.210;10.628;2022-12-18T11:48:58;27.80;;;12.77;;
8536;SDS011;4306;50.210;10.628;2022-12-18T11:51:31;25.13;;;12.73;;
8536;SDS011;4306;50.210;10.628;2022-12-18T11:54:07;26.03;;;12.93;;
8536;SDS011;4306;50.210;10.628;2022-12-18T11:56:43;27.03;;;12.57;;
8536;SDS011;4306;50.210;10.628;2022-12-18T11:59:15;25.70;;;12.70;;
8536;SDS011;4306;50.210;10.628;2022-12-18T12:01:53;25.67;;;12.13;;
8536;SDS011;4306;50.210;10.628;2022-12-18T12:04:35;22.03;;;11.43;;
8536;SDS011;4306;50.210;10.628;2022-12-18T12:07:18;28.17;;;12.77;;
8536;SDS011;4306;50.210;10.628;2022-12-18T12:09:56;30.13;;;12.97;;
8536;SDS011;4306;50.210;10.628;2022-12-18T12:12:32;22.00;;;11.67;;
8536;SDS011;4306;50.210;10.628;2022-12-18T12:15:17;25.20;;;11.80;;
8536;SDS011;4306;50.210;10.628;2022-12-18T12:17:53;24.87;;;12.00;;
8536;SDS011;4306;50.210;10.628;2022-12-18T12:20:30;25.50;;;12.70;;
8536;SDS011;4306;50.210;10.628;2022-12-18T12:23:09;23.97;;;11.83;;
8536;SDS011;4306;50.210;10.628;2022-12-18T12:25:46;22.20;;;11.13;;
8536;SDS011;4306;50.210;10.628;2022-12-18T12:28:20;25.73;;;12.27;;
8536;SDS011;4306;50.210;10.628;2022-12-18T12:31:03;25.40;;;12.87;;
8536;SDS011;4306;50.210;10.628;2022-12-18T12:33:40;23.07;;;11.10;;
8536;SDS011;4306;50.210;10.628;2022-12-18T12:36:15;23.30;;;12.77;;
8536;SDS011;4306;50.210;10.628;2022-12-18T12:38:49;28.20;;;14.73;;
8536;SDS011;4306;50.210;10.628;2022-12-18T12:41:22;24.63;;;11.83;;
8536;SDS011;4306;50.210;10.628;2022-12-18T12:44:13;20.37;;;11.53;;
8536;SDS011;4306;50.210;10.628;2022-12-18T12:46:46;24.73;;;12.63;;
8536;SDS011;4306;50.210;10.628;2022-12-18T12:49:17;20.10;;;10.67;;
8536;SDS011;4306;50.210;10.628;2022-12-18T12:51:49;22.67;;;11.43;;
8536;SDS011;4306;50.210;10.628;2022-12-18T12:54:24;21.23;;;10.70;;
8536;SDS011;4306;50.210;10.628;2022-12-18T12:56:54;21.13;;;10.63;;
8536;SDS011;4306;50.210;10.628;2022-12-18T12:59:30;21.57;;;9.53;;
8536;SDS011;4306;50.210;10.628;2022-12-18T13:02:06;20.60;;;10.97;;
8536;SDS011;4306;50.210;10.628;2022-12-18T13:04:41;18.50;;;9.57;;
8536;SDS011;4306;50.210;10.628;2022-12-18T13:07:14;18.50;;;9.80;;
8536;SDS011;4306;50.210;10.628;2022-12-18T13:12:57;21.70;;;11.47;;
8536;SDS011;4306;50.210;10.628;2022-12-18T13:15:25;20.60;;;9.87;;
8536;SDS011;4306;50.210;10.628;2022-12-18T13:18:04;19.97;;;9.63;;
8536;SDS011;4306;50.210;10.628;2022-12-18T13:20:41;21.80;;;9.70;;
8536;SDS011;4306;50.210;10.628;2022-12-18T13:25:55;23.37;;;10.60;;
8536;SDS011;4306;50.210;10.628;2022-12-18T13:28:24;23.47;;;10.20;;
8536;SDS011;4306;50.210;10.628;2022-12-18T13:34:34;23.43;;;11.53;;
8536;SDS011;4306;50.210;10.628;2022-12-18T13:43:32;19.60;;;10.37;;
8536;SDS011;4306;50.210;10.628;2022-12-18T13:46:05;22.20;;;10.73;;
8536;SDS011;4306;50.210;10.628;2022-12-18T13:48:54;20.13;;;10.10;;
8536;SDS011;4306;50.210;10.628;2022-12-18T13:51:24;20.93;;;10.00;;
8536;SDS011;4306;50.210;10.628;2022-12-18T13:53:53;21.90;;;11.43;;
8536;SDS011;4306;50.210;10.628;2022-12-18T13:56:23;24.43;;;12.50;;
8536;SDS011;4306;50.210;10.628;2022-12-18T14:01:42;22.97;;;11.17;;
8536;SDS011;4306;50.210;10.628;2022-12-18T14:04:10;16.87;;;9.77;;
8536;SDS011;4306;50.210;10.628;2022-12-18T14:06:39;20.03;;;10.67;;
8536;SDS011;4306;50.210;10.628;2022-12-18T14:09:10;24.00;;;11.30;;
8536;SDS011;4306;50.210;10.628;2022-12-18T14:11:40;23.50;;;11.53;;
8536;SDS011;4306;50.210;10.628;2022-12-18T14:14:13;21.53;;;11.20;;
8536;SDS011;4306;50.210;10.628;2022-12-18T14:16:42;22.97;;;11.47;;
8536;SDS011;4306;50.210;10.628;2022-12-18T14:19:10;21.67;;;10.80;;
8536;SDS011;4306;50.210;10.628;2022-12-18T14:21:42;21.93;;;11.83;;
8536;SDS011;4306;50.210;10.628;2022-12-18T14:24:14;28.67;;;14.27;;
8536;SDS011;4306;50.210;10.628;2022-12-18T14:26:42;28.10;;;13.43;;
8536;SDS011;4306;50.210;10.628;2022-12-18T14:32:10;22.57;;;11.33;;
8536;SDS011;4306;50.210;10.628;2022-12-18T14:34:42;20.50;;;10.70;;
8536;SDS011;4306;50.210;10.628;2022-12-18T14:37:10;22.83;;;11.53;;
8536;SDS011;4306;50.210;10.628;2022-12-18T14:39:39;21.67;;;10.90;;
8536;SDS011;4306;50.210;10.628;2022-12-18T14:42:09;17.93;;;10.23;;
8536;SDS011;4306;50.210;10.628;2022-12-18T14:44:37;20.97;;;10.80;;
8536;SDS011;4306;50.210;10.628;2022-12-18T14:47:04;21.10;;;10.23;;
8536;SDS011;4306;50.210;10.628;2022-12-18T14:49:31;21.20;;;9.80;;
8536;SDS011;4306;50.210;10.628;2022-12-18T14:52:02;21.27;;;10.33;;
8536;SDS011;4306;50.210;10.628;2022-12-18T14:54:32;20.97;;;10.53;;
8536;SDS011;4306;50.210;10.628;2022-12-18T14:57:02;22.33;;;10.13;;
8536;SDS011;4306;50.210;10.628;2022-12-18T14:59:32;25.70;;;11.80;;
8536;SDS011;4306;50.210;10.628;2022-12-18T15:02:00;20.10;;;9.97;;
8536;SDS011;4306;50.210;10.628;2022-12-18T15:04:31;24.00;;;12.57;;
8536;SDS011;4306;50.210;10.628;2022-12-18T15:07:04;27.83;;;10.93;;
8536;SDS011;4306;50.210;10.628;2022-12-18T15:09:37;25.90;;;11.10;;
8536;SDS011;4306;50.210;10.628;2022-12-18T15:12:04;24.27;;;11.80;;
8536;SDS011;4306;50.210;10.628;2022-12-18T15:14:45;21.60;;;11.07;;
8536;SDS011;4306;50.210;10.628;2022-12-18T15:17:17;27.50;;;16.27;;
8536;SDS011;4306;50.210;10.628;2022-12-18T15:19:46;20.03;;;9.73;;
8536;SDS011;4306;50.210;10.628;2022-12-18T15:22:17;20.93;;;10.73;;